Latest Coastal Weather Observations for Sydney Harbour

IDN60701

Issued at 8:01 am EDT Wednesday 10 February 2016 (issued every 10 minutes, with the page automatically refreshed every 10 minutes)

About coastal observations | Map of coastal stations | Coastal observations for NSW | Marine services | Other Formats
Station Details ID: 066196 Name: WEDDING CAKE WEST Lat: -33.84 Lon: 151.26 Height: 6.0 m
Data from the previous 72 hours. | See also: Recent months at Sydney Harbour
Date/Time
EDT
Temp

°C
Wind Pressure Rain
since 9am
mm
Weather Cloud Vis
km
Sea
Height
m
Swell
Dir
 
Speed
knots
Gust
knots
hPa Trend Height
m
Period
s
Dir
10/08:00am 21.7 W 3 4 - - - - - - - - - -
10/07:30am 21.1 W 3 4 - - - - - - - - - -
10/07:00am 20.7 W 3 5 - - - - - - - - - -
10/06:30am 20.6 W 1 4 - - - - - - - - - -
10/06:00am 20.8 CALM 0 0 - - - - - - - - - -
10/05:30am 21.0 W 4 5 - - - - - - - - - -
10/05:00am 21.3 W 3 5 - - - - - - - - - -
10/04:30am 21.5 CALM 0 3 - - - - - - - - - -
10/04:00am 21.6 W 4 6 - - - - - - - - - -
10/03:30am 21.6 E 7 8 - - - - - - - - - -
10/03:00am 21.8 E 2 4 - - - - - - - - - -
10/02:30am 21.9 E 5 6 - - - - - - - - - -
10/02:00am 22.2 CALM 0 0 - - - - - - - - - -
10/01:30am 22.4 CALM 0 0 - - - - - - - - - -
10/01:00am 22.5 CALM 0 0 - - - - - - - - - -
10/12:30am 22.5 CALM 0 0 - - - - - - - - - -
10/12:00am 22.5 CALM 0 2 - - - - - - - - - -
 
Date/Time
EDT
Temp

°C
Wind Pressure Rain
since 9am
mm
Weather Cloud Vis
km
Sea
Height
m
Swell
Dir
 
Speed
knots
Gust
knots
hPa Trend Height
m
Period
s
Dir
09/11:30pm 23.1 E 4 5 - - - - - - - - - -
09/11:00pm 23.1 E 4 5 - - - - - - - - - -
09/10:30pm 23.2 E 4 5 - - - - - - - - - -
09/10:00pm 23.1 E 5 7 - - - - - - - - - -
09/09:30pm 23.1 E 5 6 - - - - - - - - - -
09/09:00pm 23.2 E 7 8 - - - - - - - - - -
09/08:30pm 23.2 ESE 7 9 - - - - - - - - - -
09/08:00pm 23.2 ESE 8 9 - - - - - - - - - -
09/07:30pm 23.5 SE 8 11 - - - - - - - - - -
09/07:00pm 24.0 SE 9 11 - - - - - - - - - -
09/06:30pm 24.3 SE 9 11 - - - - - - - - - -
09/06:00pm 24.0 SE 10 14 - - - - - - - - - -
09/05:30pm 24.4 SE 11 15 - - - - - - - - - -
09/05:00pm 24.1 SE 12 15 - - - - - - - - - -
09/04:30pm 23.9 SSE 13 16 - - - - - - - - - -
09/04:00pm 23.9 SSE 12 17 - - - - - - - - - -
09/03:30pm 24.1 SSE 11 17 - - - - - - - - - -
09/03:00pm 23.7 SSE 12 17 - - - - - - - - - -
09/02:30pm 23.3 S 14 19 - - - - - - - - - -
09/02:00pm 23.8 SSE 12 17 - - - - - - - - - -
09/01:30pm 23.6 S 14 20 - - - - - - - - - -
09/01:00pm 23.5 S 14 19 - - - - - - - - - -
09/12:30pm 23.6 S 14 19 - - - - - - - - - -
09/12:00pm 23.2 S 15 21 - - - - - - - - - -
09/11:30am 23.4 S 15 19 - - - - - - - - - -
09/11:00am 23.4 S 16 20 - - - - - - - - - -
09/10:30am 23.7 S 16 21 - - - - - - - - - -
09/10:00am 23.3 S 16 23 - - - - - - - - - -
09/09:30am 23.4 S 17 21 - - - - - - - - - -
09/09:00am 23.5 S 14 18 - - - - - - - - - -
09/08:30am 23.3 S 15 19 - - - - - - - - - -
09/08:00am 22.3 WSW 8 12 - - - - - - - - - -
09/07:30am 22.0 WSW 9 13 - - - - - - - - - -
09/07:00am 22.1 W 7 9 - - - - - - - - - -
09/06:30am 22.2 W 6 7 - - - - - - - - - -
09/06:00am 21.9 W 6 8 - - - - - - - - - -
09/05:30am 22.7 WSW 5 7 - - - - - - - - - -
09/05:00am 23.4 S 9 11 - - - - - - - - - -
09/04:30am 23.3 S 7 9 - - - - - - - - - -
09/04:00am 23.0 S 6 8 - - - - - - - - - -
09/03:30am 23.1 SSE 10 13 - - - - - - - - - -
09/03:00am 23.1 S 6 8 - - - - - - - - - -
09/02:30am 23.1 S 7 9 - - - - - - - - - -
09/02:00am 23.2 SSE 8 10 - - - - - - - - - -
09/01:30am 23.3 SSE 8 12 - - - - - - - - - -
09/01:00am 23.3 SSE 7 9 - - - - - - - - - -
09/12:30am 23.3 SSE 7 10 - - - - - - - - - -
09/12:00am 23.4 SSE 8 10 - - - - - - - - - -
 
Date/Time
EDT
Temp

°C
Wind Pressure Rain
since 9am
mm
Weather Cloud Vis
km
Sea
Height
m
Swell
Dir
 
Speed
knots
Gust
knots
hPa Trend Height
m
Period
s
Dir
08/11:30pm 23.5 SSE 7 9 - - - - - - - - - -
08/11:00pm 23.5 SSE 8 10 - - - - - - - - - -
08/10:30pm 23.5 SE 7 8 - - - - - - - - - -
08/10:00pm 23.5 SE 8 10 - - - - - - - - - -
08/09:30pm 23.5 SE 7 8 - - - - - - - - - -
08/09:00pm 23.5 SE 5 7 - - - - - - - - - -
08/08:30pm 23.5 SE 6 7 - - - - - - - - - -
08/08:00pm 23.6 SE 6 7 - - - - - - - - - -
08/07:30pm 24.2 SE 7 9 - - - - - - - - - -
08/07:00pm 24.5 SE 8 10 - - - - - - - - - -
08/06:30pm 24.6 SE 9 10 - - - - - - - - - -
08/06:00pm 24.7 ESE 8 11 - - - - - - - - - -
08/05:30pm 24.4 SE 9 12 - - - - - - - - - -
08/05:00pm 24.7 SE 9 12 - - - - - - - - - -
08/04:30pm 24.4 SE 11 13 - - - - - - - - - -
08/04:00pm 24.5 SE 11 15 - - - - - - - - - -
08/03:30pm 24.6 ESE 10 13 - - - - - - - - - -
08/03:00pm 24.4 ESE 10 13 - - - - - - - - - -
08/02:30pm 24.5 SE 10 13 - - - - - - - - - -
08/02:00pm 24.3 SE 11 13 - - - - - - - - - -
08/01:30pm 24.0 SE 10 12 - - - - - - - - - -
08/01:00pm 23.9 SE 11 13 - - - - - - - - - -
08/12:30pm 24.0 SE 10 11 - - - - - - - - - -
08/12:00pm 24.1 S 9 12 - - - - - - - - - -
08/11:30am 23.7 S 10 13 - - - - - - - - - -
08/11:00am 23.6 S 12 14 - - - - - - - - - -
08/10:30am 24.1 SSE 9 12 - - - - - - - - - -
08/10:00am 23.7 S 9 11 - - - - - - - - - -
08/09:30am 22.7 SW 8 10 - - - - - - - - - -
08/09:00am 22.1 WSW 8 10 - - - - - - - - - -
08/08:30am 21.4 WSW 8 9 - - - - - - - - - -
08/08:00am 21.3 WSW 7 8 - - - - - - - - - -
08/07:30am 21.2 WSW 7 9 - - - - - - - - - -
08/07:00am 21.0 WSW 8 10 - - - - - - - - - -
08/06:30am 21.0 WSW 8 11 - - - - - - - - - -
08/06:00am 20.9 WSW 8 10 - - - - - - - - - -
08/05:30am 20.8 WSW 6 8 - - - - - - - - - -
08/05:00am 20.7 WSW 5 7 - - - - - - - - - -
08/04:30am 20.8 W 5 6 - - - - - - - - - -
08/04:00am 21.0 W 6 7 - - - - - - - - - -
08/03:30am 21.1 WSW 8 10 - - - - - - - - - -
08/03:00am 21.5 W 8 9 - - - - - - - - - -
08/02:30am 21.8 SW 7 8 - - - - - - - - - -
08/02:00am 21.8 SE 5 6 - - - - - - - - - -
08/01:30am 21.8 SE 5 5 - - - - - - - - - -
08/01:00am 21.9 SE 4 4 - - - - - - - - - -
08/12:30am 22.1 SE 3 4 - - - - - - - - - -
08/12:00am 22.4 SE 4 5 - - - - - - - - - -
 
Date/Time
EDT
Temp

°C
Wind Pressure Rain
since 9am
mm
Weather Cloud Vis
km
Sea
Height
m
Swell
Dir
 
Speed
knots
Gust
knots
hPa Trend Height
m
Period
s
Dir
07/11:30pm 22.4 SE 3 4 - - - - - - - - - -
07/11:00pm 22.3 SE 4 5 - - - - - - - - - -
07/10:30pm 22.4 CALM 0 0 - - - - - - - - - -
07/10:00pm 22.5 CALM 0 0 - - - - - - - - - -
07/09:30pm 22.9 CALM 0 3 - - - - - - - - - -
07/09:00pm 23.3 SE 4 5 - - - - - - - - - -
07/08:30pm 23.4 SE 5 7 - - - - - - - - - -
07/08:00pm 23.6 ESE 6 8 - - - - - - - - - -
07/07:30pm 23.9 E 5 6 - - - - - - - - - -
07/07:00pm 24.4 E 5 7 - - - - - - - - - -
07/06:30pm 24.7 E 7 9 - - - - - - - - - -
07/06:00pm 24.8 E 8 10 - - - - - - - - - -
07/05:30pm 24.7 ESE 10 13 - - - - - - - - - -
07/05:00pm 24.7 ESE 11 13 - - - - - - - - - -
07/04:30pm 24.7 ESE 10 13 - - - - - - - - - -
07/04:00pm 24.8 ESE 10 13 - - - - - - - - - -
07/03:30pm 24.5 ESE 10 12 - - - - - - - - - -
07/03:00pm 24.6 ESE 9 12 - - - - - - - - - -
07/02:30pm 24.4 SE 10 13 - - - - - - - - - -
07/02:00pm 24.2 SE 9 14 - - - - - - - - - -
07/01:30pm 24.0 SE 9 12 - - - - - - - - - -
07/01:00pm 24.1 SE 8 11 - - - - - - - - - -
07/12:30pm 24.1 SE 7 10 - - - - - - - - - -
07/12:00pm 23.7 SE 8 11 - - - - - - - - - -
07/11:30am 23.9 SE 7 11 - - - - - - - - - -
07/11:00am 23.8 SE 7 10 - - - - - - - - - -
07/10:30am 23.6 SE 7 9 - - - - - - - - - -
07/10:00am 23.1 SSE 9 12 - - - - - - - - - -
07/09:30am 23.0 S 10 16 - - - - - - - - - -
07/09:00am 22.2 WSW 4 6 - - - - - - - - - -
07/08:30am 21.8 WSW 5 6 - - - - - - - - - -

Other Formats:

Comma delimited format used in spreadsheet applications
http://www.bom.gov.au/fwo/IDN60701/IDN60701.95766.axf

JavaScript Object Notation format (JSON) in row-major order
http://www.bom.gov.au/fwo/IDN60701/IDN60701.95766.json